createdAt,value
2023-04-29T00:02:06.518Z,9.30
2023-04-29T00:04:38.007Z,9.75
2023-04-29T00:07:11.856Z,10.52
2023-04-29T00:09:40.666Z,11.82
2023-04-29T00:12:11.732Z,8.75
2023-04-29T00:14:40.293Z,13.70
2023-04-29T00:17:09.100Z,12.98
2023-04-29T00:19:38.206Z,17.83
2023-04-29T00:22:07.658Z,12.10
2023-04-29T00:24:36.473Z,23.77
2023-04-29T00:27:06.276Z,21.15
2023-04-29T00:29:36.937Z,28.10
2023-04-29T00:32:06.793Z,19.23
2023-04-29T00:34:35.553Z,20.85
2023-04-29T00:37:04.441Z,21.48
2023-04-29T00:39:33.012Z,17.95
2023-04-29T00:42:03.515Z,23.40
2023-04-29T00:44:32.029Z,17.50
2023-04-29T00:47:04.004Z,21.25
2023-04-29T00:49:33.334Z,18.40
2023-04-29T00:52:02.650Z,22.10
2023-04-29T00:54:31.832Z,19.02
2023-04-29T00:57:02.800Z,27.92
2023-04-29T00:59:32.538Z,16.88
2023-04-29T01:02:04.444Z,23.15
2023-04-29T01:04:36.315Z,16.90
2023-04-29T01:07:14.331Z,15.50
2023-04-29T01:09:58.971Z,16.67
2023-04-29T01:12:34.474Z,17.17
2023-04-29T01:15:06.976Z,17.83
2023-04-29T01:17:44.129Z,20.70
2023-04-29T01:20:13.600Z,13.32
2023-04-29T01:22:44.954Z,17.63
2023-04-29T01:25:22.292Z,19.15
2023-04-29T01:28:22.985Z,15.77
2023-04-29T01:30:58.280Z,18.52
2023-04-29T01:33:39.785Z,11.00
2023-04-29T01:36:18.740Z,19.08
2023-04-29T01:38:54.726Z,11.43
2023-04-29T01:41:33.472Z,16.52
2023-04-29T01:44:17.073Z,14.32
2023-04-29T01:46:50.342Z,14.45
2023-04-29T01:49:22.478Z,15.77
2023-04-29T01:51:51.192Z,16.92
2023-04-29T01:54:19.532Z,14.98
2023-04-29T01:56:49.728Z,13.68
2023-04-29T01:59:25.666Z,15.70
2023-04-29T02:02:10.720Z,20.17
2023-04-29T02:04:46.683Z,13.98
2023-04-29T02:07:14.974Z,10.27
2023-04-29T02:09:43.746Z,10.93
2023-04-29T02:12:15.106Z,10.70
2023-04-29T02:14:43.300Z,17.17
2023-04-29T02:17:12.538Z,14.20
2023-04-29T02:19:42.840Z,10.55
2023-04-29T02:22:12.567Z,9.40
2023-04-29T02:24:42.552Z,10.88
2023-04-29T02:27:10.499Z,8.57
2023-04-29T02:29:52.816Z,8.10
2023-04-29T02:32:21.696Z,11.95
2023-04-29T02:34:51.114Z,13.10
2023-04-29T02:37:20.860Z,14.25
2023-04-29T02:39:50.001Z,9.80
2023-04-29T02:42:27.340Z,13.35
2023-04-29T02:45:09.424Z,21.05
2023-04-29T02:47:42.682Z,14.77
2023-04-29T02:50:15.856Z,18.02
2023-04-29T02:52:49.430Z,15.80
2023-04-29T02:55:19.238Z,17.38
2023-04-29T02:57:50.846Z,17.65
2023-04-29T03:00:25.052Z,10.05
2023-04-29T03:02:55.449Z,13.30
2023-04-29T03:05:23.905Z,18.10
2023-04-29T03:07:52.657Z,17.45
2023-04-29T03:10:21.886Z,10.15
2023-04-29T03:12:51.503Z,10.98
2023-04-29T03:15:21.869Z,10.80
2023-04-29T03:17:50.856Z,6.93
2023-04-29T03:20:20.595Z,11.38
2023-04-29T03:22:58.588Z,11.13
2023-04-29T03:25:27.230Z,9.45
2023-04-29T03:27:56.363Z,9.55
2023-04-29T03:30:27.441Z,10.18
2023-04-29T03:33:01.480Z,8.27
2023-04-29T03:35:31.839Z,9.43
2023-04-29T03:38:24.387Z,13.25
2023-04-29T03:40:58.552Z,11.55
2023-04-29T03:43:37.209Z,7.55
2023-04-29T03:46:08.349Z,11.07
2023-04-29T03:48:41.844Z,9.93
2023-04-29T03:51:15.450Z,13.05
2023-04-29T03:53:47.002Z,12.80
2023-04-29T03:56:17.471Z,23.55
2023-04-29T03:58:47.552Z,19.65
2023-04-29T04:01:17.869Z,18.60
2023-04-29T04:03:48.116Z,19.55
2023-04-29T04:06:16.570Z,17.90
2023-04-29T04:08:45.327Z,18.38
2023-04-29T04:11:17.427Z,18.63
2023-04-29T04:14:00.720Z,20.23
2023-04-29T04:16:30.968Z,19.88
2023-04-29T04:19:00.150Z,18.90
2023-04-29T04:21:29.013Z,20.75
2023-04-29T04:24:03.849Z,20.98
2023-04-29T04:26:32.756Z,20.40
2023-04-29T04:29:16.493Z,19.48
2023-04-29T04:32:01.946Z,20.58
2023-04-29T04:34:32.511Z,24.85
2023-04-29T04:37:03.019Z,30.52
2023-04-29T04:39:32.769Z,27.10
2023-04-29T04:42:05.737Z,24.30
2023-04-29T04:44:36.495Z,22.48
2023-04-29T04:47:11.649Z,23.30
2023-04-29T04:49:49.912Z,22.83
2023-04-29T04:52:21.359Z,23.48
2023-04-29T04:55:00.559Z,28.58
2023-04-29T04:57:31.196Z,28.80
2023-04-29T05:00:02.592Z,23.88
2023-04-29T05:02:32.164Z,30.88
2023-04-29T05:05:00.396Z,25.00
2023-04-29T05:07:31.809Z,24.75
2023-04-29T05:10:06.654Z,27.17
2023-04-29T05:12:38.297Z,33.47
2023-04-29T05:15:07.203Z,22.77
2023-04-29T05:17:36.830Z,25.35
2023-04-29T05:20:06.447Z,22.00
2023-04-29T05:22:35.236Z,23.45
2023-04-29T05:25:03.873Z,25.50
2023-04-29T05:27:35.315Z,23.02
2023-04-29T05:30:06.332Z,21.73
2023-04-29T05:32:36.544Z,21.67
2023-04-29T05:35:07.630Z,20.55
2023-04-29T05:37:36.745Z,17.30
2023-04-29T05:40:15.826Z,24.00
2023-04-29T05:42:44.845Z,23.02
2023-04-29T05:45:14.153Z,20.05
2023-04-29T05:47:43.715Z,21.13
2023-04-29T05:50:12.790Z,16.67
2023-04-29T05:52:41.078Z,17.60
2023-04-29T05:55:11.212Z,18.85
2023-04-29T05:57:40.256Z,18.30
2023-04-29T06:00:10.563Z,22.85
2023-04-29T06:02:57.658Z,15.98
2023-04-29T06:05:29.567Z,19.92
2023-04-29T06:08:12.011Z,17.15
2023-04-29T06:10:52.090Z,16.90
2023-04-29T06:13:20.467Z,14.50
2023-04-29T06:15:48.773Z,19.27
2023-04-29T06:18:19.052Z,15.57
2023-04-29T06:20:47.263Z,12.68
2023-04-29T06:23:16.140Z,19.15
2023-04-29T06:25:44.406Z,15.38
2023-04-29T06:28:12.448Z,14.63
2023-04-29T06:30:40.488Z,10.90
2023-04-29T06:33:13.870Z,12.68
2023-04-29T06:35:43.576Z,17.02
2023-04-29T06:42:57.396Z,13.35
2023-04-29T06:45:51.942Z,16.35
2023-04-29T06:48:30.075Z,11.65
2023-04-29T06:51:00.464Z,10.57
2023-04-29T06:53:37.088Z,11.90
2023-04-29T06:56:05.880Z,10.60
2023-04-29T06:58:34.130Z,8.82
2023-04-29T07:01:05.539Z,12.43
2023-04-29T07:03:33.687Z,15.40
2023-04-29T07:06:05.133Z,16.55
2023-04-29T07:08:33.280Z,12.85
2023-04-29T07:11:01.566Z,11.88
2023-04-29T07:13:30.097Z,8.35
2023-04-29T07:15:58.435Z,6.68
2023-04-29T07:18:27.268Z,6.30
2023-04-29T07:20:55.840Z,10.00
2023-04-29T07:23:27.878Z,8.35
2023-04-29T07:25:57.505Z,10.32
2023-04-29T07:28:26.197Z,7.45
2023-04-29T07:30:55.323Z,3.72
2023-04-29T07:33:26.322Z,11.85
2023-04-29T07:35:54.594Z,6.18
2023-04-29T07:38:22.635Z,6.18
2023-04-29T07:40:52.006Z,4.55
2023-04-29T07:43:20.427Z,6.18
2023-04-29T07:45:48.597Z,7.35
2023-04-29T07:48:17.031Z,11.02
2023-04-29T07:50:46.439Z,7.40
2023-04-29T07:53:15.752Z,4.82
2023-04-29T07:55:43.848Z,6.93
2023-04-29T07:58:13.808Z,4.32
2023-04-29T08:00:41.896Z,6.57
2023-04-29T08:03:10.491Z,6.03
2023-04-29T08:05:38.783Z,4.75
2023-04-29T08:08:07.014Z,9.00
2023-04-29T08:10:34.988Z,2.35
2023-04-29T08:13:03.197Z,9.18
2023-04-29T08:15:32.485Z,7.22
2023-04-29T08:18:00.578Z,4.25
2023-04-29T08:20:28.860Z,4.35
2023-04-29T08:22:57.123Z,5.05
2023-04-29T08:25:27.246Z,4.00
2023-04-29T08:27:55.215Z,3.40
2023-04-29T08:30:23.289Z,5.97
2023-04-29T08:32:53.284Z,6.07
2023-04-29T08:35:21.476Z,4.85
2023-04-29T08:37:49.642Z,3.42
2023-04-29T08:40:17.669Z,4.35
2023-04-29T08:42:48.852Z,2.15
2023-04-29T08:45:21.866Z,6.45
2023-04-29T08:47:51.640Z,3.53
2023-04-29T08:50:21.302Z,2.92
2023-04-29T08:52:51.334Z,3.28
2023-04-29T08:55:19.720Z,3.38
2023-04-29T08:57:50.528Z,7.82
2023-04-29T09:00:19.771Z,1.17
2023-04-29T09:02:51.785Z,12.63
2023-04-29T09:05:21.893Z,0.50
2023-04-29T09:07:51.520Z,3.67
2023-04-29T09:10:20.269Z,4.05
2023-04-29T09:12:48.267Z,2.67
2023-04-29T09:15:16.456Z,4.75
2023-04-29T09:17:46.096Z,3.13
2023-04-29T09:20:31.827Z,2.30
2023-04-29T09:23:02.974Z,0.65
2023-04-29T09:25:31.649Z,2.10
2023-04-29T09:27:59.788Z,1.45
2023-04-29T09:30:28.001Z,1.92
2023-04-29T09:33:07.559Z,1.88
2023-04-29T09:35:38.228Z,1.38
2023-04-29T09:38:12.085Z,4.72
2023-04-29T09:40:54.376Z,1.52
2023-04-29T09:43:25.561Z,5.70
2023-04-29T09:45:53.629Z,3.38
2023-04-29T09:48:21.850Z,2.97
2023-04-29T09:51:03.811Z,6.35
2023-04-29T09:53:32.669Z,2.30
2023-04-29T09:56:02.698Z,2.47
2023-04-29T09:58:34.313Z,4.20
2023-04-29T10:01:03.813Z,3.38
2023-04-29T10:03:35.157Z,5.38
2023-04-29T10:06:08.649Z,6.20
2023-04-29T10:08:37.035Z,2.95
2023-04-29T10:11:06.306Z,4.18
2023-04-29T10:13:38.495Z,2.38
2023-04-29T10:16:15.763Z,1.60
2023-04-29T10:18:50.252Z,3.15
2023-04-29T10:21:22.251Z,5.57
2023-04-29T10:23:51.341Z,3.42
2023-04-29T10:26:20.026Z,5.43
2023-04-29T10:28:51.551Z,4.60
2023-04-29T10:31:22.767Z,11.40
2023-04-29T10:33:53.257Z,6.18
2023-04-29T10:36:23.637Z,4.40
2023-04-29T10:38:55.515Z,3.22
2023-04-29T10:41:26.867Z,3.85
2023-04-29T10:43:55.072Z,3.90
2023-04-29T10:46:26.330Z,4.13
2023-04-29T10:48:59.636Z,2.63
2023-04-29T10:51:34.388Z,8.63
2023-04-29T10:54:09.798Z,3.42
2023-04-29T10:56:42.911Z,1.63
2023-04-29T10:59:13.100Z,2.22
2023-04-29T11:01:49.453Z,2.33
2023-04-29T11:04:18.628Z,1.60
2023-04-29T11:06:52.449Z,6.18
2023-04-29T11:09:22.346Z,3.05
2023-04-29T11:12:03.033Z,3.30
2023-04-29T11:14:33.581Z,0.65
2023-04-29T11:17:03.658Z,1.40
2023-04-29T11:19:36.176Z,6.13
2023-04-29T11:22:14.048Z,1.33
2023-04-29T11:24:53.197Z,5.68
2023-04-29T11:27:25.776Z,2.20
2023-04-29T11:29:58.703Z,5.53
2023-04-29T11:32:27.861Z,0.70
2023-04-29T11:34:56.616Z,1.88
2023-04-29T11:37:27.587Z,4.30
2023-04-29T11:40:01.488Z,2.65
2023-04-29T11:42:29.585Z,4.93
2023-04-29T11:44:59.603Z,1.80
2023-04-29T11:47:29.579Z,5.07
2023-04-29T11:50:04.568Z,4.90
2023-04-29T11:52:34.699Z,4.47
2023-04-29T11:55:03.847Z,3.55
2023-04-29T11:57:31.899Z,3.20
2023-04-29T12:00:00.145Z,3.17
2023-04-29T12:02:32.687Z,2.97
2023-04-29T12:05:02.774Z,1.92
2023-04-29T12:07:31.143Z,2.42
2023-04-29T12:10:00.784Z,3.85
2023-04-29T12:12:29.322Z,3.95
2023-04-29T12:14:58.582Z,2.13
2023-04-29T12:17:27.017Z,0.50
2023-04-29T12:19:55.620Z,3.92
2023-04-29T12:22:24.056Z,1.33
2023-04-29T12:24:54.729Z,1.45
2023-04-29T12:27:26.681Z,5.15
2023-04-29T12:29:54.870Z,0.52
2023-04-29T12:32:25.926Z,8.15
2023-04-29T12:34:55.412Z,0.88
2023-04-29T12:37:24.553Z,3.72
2023-04-29T12:39:54.337Z,3.53
2023-04-29T12:42:22.282Z,0.52
2023-04-29T12:44:51.845Z,0.70
2023-04-29T12:47:21.539Z,2.13
2023-04-29T12:49:50.313Z,0.35
2023-04-29T12:52:18.208Z,2.15
2023-04-29T12:54:46.269Z,0.75
2023-04-29T12:57:14.530Z,0.50
2023-04-29T12:59:42.527Z,1.30
2023-04-29T13:02:12.533Z,0.80
2023-04-29T13:04:40.638Z,1.55
2023-04-29T13:07:08.986Z,1.48
2023-04-29T13:09:38.115Z,4.90
2023-04-29T13:12:09.393Z,1.90
2023-04-29T13:14:37.531Z,0.57
2023-04-29T13:17:06.153Z,4.18
2023-04-29T13:22:07.490Z,5.68
2023-04-29T13:24:36.598Z,2.40
2023-04-29T13:27:05.803Z,3.30
2023-04-29T13:29:34.145Z,1.40
2023-04-29T13:32:02.397Z,3.25
2023-04-29T13:34:30.393Z,1.15
2023-04-29T13:36:59.878Z,2.33
2023-04-29T13:39:28.156Z,0.52
2023-04-29T13:41:58.959Z,1.02
2023-04-29T13:44:37.657Z,1.83
2023-04-29T13:47:15.478Z,0.38
2023-04-29T13:50:22.582Z,1.55
2023-04-29T13:55:50.057Z,5.90
2023-04-29T14:01:17.189Z,1.23
2023-04-29T14:06:22.447Z,4.25
2023-04-29T14:14:22.907Z,0.38
2023-04-29T14:22:22.005Z,2.55
2023-04-29T14:27:36.871Z,1.85
2023-04-29T14:30:05.851Z,1.75
2023-04-29T14:38:05.090Z,1.77
2023-04-29T14:46:05.583Z,2.30
2023-04-29T14:48:33.543Z,1.77
2023-04-29T14:53:46.958Z,2.22
2023-04-29T14:56:17.685Z,2.28
2023-04-29T14:58:45.917Z,1.13
2023-04-29T15:03:59.241Z,0.93
2023-04-29T15:20:22.122Z,1.90
2023-04-29T15:22:50.126Z,0.55
2023-04-29T15:28:05.956Z,0.95
2023-04-29T15:30:34.119Z,0.95
2023-04-29T15:46:51.009Z,1.65
2023-04-29T15:49:19.114Z,0.30
2023-04-29T15:51:47.352Z,0.85
2023-04-29T15:59:48.377Z,7.15
2023-04-29T16:02:16.860Z,2.05
2023-04-29T16:04:44.751Z,1.95
2023-04-29T16:07:12.764Z,1.65
2023-04-29T16:09:40.767Z,0.30
2023-04-29T16:12:11.492Z,2.70
2023-04-29T16:34:06.020Z,0.08
2023-04-29T16:39:20.204Z,2.00
2023-04-29T16:41:48.445Z,4.57
2023-04-29T16:47:02.539Z,1.70
2023-04-29T16:49:32.394Z,1.38
2023-04-29T16:52:00.482Z,0.82
2023-04-29T16:57:14.556Z,1.00
2023-04-29T16:59:42.785Z,3.15
2023-04-29T17:02:10.800Z,1.35
2023-04-29T17:04:40.716Z,0.22
2023-04-29T17:12:40.968Z,1.45
2023-04-29T17:15:10.029Z,0.65
2023-04-29T17:17:38.406Z,0.00
2023-04-29T17:20:09.559Z,0.00
2023-04-29T17:28:11.870Z,0.03
2023-04-29T17:36:21.052Z,0.10
2023-04-29T17:44:23.170Z,0.20
2023-04-29T17:55:10.724Z,1.48
2023-04-29T18:00:26.062Z,1.67
2023-04-29T18:05:39.966Z,2.42
2023-04-29T18:10:55.310Z,0.10
2023-04-29T18:13:25.915Z,0.77
2023-04-29T18:18:41.575Z,1.42
2023-04-29T18:37:46.455Z,0.22
2023-04-29T18:43:02.038Z,0.10
2023-04-29T18:45:30.503Z,2.72
2023-04-29T18:47:58.715Z,1.88
2023-04-29T18:50:26.753Z,4.38
2023-04-29T18:52:54.878Z,0.63
2023-04-29T18:55:25.450Z,1.05
2023-04-29T19:11:47.858Z,0.25
2023-04-29T19:14:16.115Z,0.45
2023-04-29T19:19:30.297Z,0.45
2023-04-29T19:21:59.530Z,1.35
2023-04-29T19:38:17.735Z,4.18
2023-04-29T19:40:45.726Z,0.50
2023-04-29T19:59:50.724Z,0.00
2023-04-29T20:05:04.757Z,2.10
2023-04-29T20:13:03.850Z,0.10
2023-04-29T20:29:23.385Z,1.25
2023-04-29T20:45:42.923Z,0.60
2023-04-29T20:56:29.018Z,2.83
2023-04-29T20:58:58.980Z,1.75
2023-04-29T21:01:27.045Z,1.85
2023-04-29T21:09:27.660Z,0.43
2023-04-29T21:11:57.938Z,2.45
2023-04-29T21:14:27.477Z,1.80
2023-04-29T21:16:56.476Z,0.55
2023-04-29T21:19:26.022Z,0.30
2023-04-29T21:21:53.964Z,0.88
2023-04-29T21:27:10.186Z,3.83
2023-04-29T21:35:13.237Z,0.30
2023-04-29T21:37:41.258Z,0.40
2023-04-29T21:40:10.491Z,0.47
2023-04-29T21:45:24.602Z,7.43
2023-04-29T21:47:55.531Z,0.20
2023-04-29T21:50:24.897Z,27.42
2023-04-29T22:01:26.494Z,7.07
2023-04-29T22:03:54.762Z,0.55
2023-04-29T22:09:10.032Z,1.40
2023-04-29T22:17:09.676Z,0.73
2023-04-29T22:25:10.312Z,1.40
2023-04-29T22:27:38.330Z,3.17
2023-04-29T22:38:26.082Z,2.88
2023-04-29T22:40:54.171Z,2.28
2023-04-29T22:48:53.652Z,10.07
2023-04-29T22:54:08.513Z,0.82
2023-04-29T22:56:36.450Z,2.95
2023-04-29T22:59:04.283Z,3.00
2023-04-29T23:15:20.215Z,5.97
2023-04-29T23:17:48.278Z,0.10
2023-04-29T23:20:16.204Z,0.75
2023-04-29T23:25:30.973Z,1.75
2023-04-29T23:27:58.886Z,0.08
2023-04-29T23:33:12.228Z,1.75
2023-04-29T23:35:40.134Z,2.35
2023-04-29T23:40:57.535Z,1.48
2023-04-29T23:43:25.498Z,1.08
2023-04-29T23:51:24.450Z,4.85
2023-04-29T23:56:39.685Z,1.65
2023-04-29T23:59:07.916Z,1.00
